Time;durP1;ratioP1;P1;durP2;ratioP2;P2;SDS_P1;SDS_P2;PMS_P1;PMS_P2;Temp;Humidity;BMP_temperature;BMP_pressure;BME280_temperature;BME280_humidity;BME280_pressure;Samples;Min_cycle;Max_cycle;Signal;HPM_P1;HPM_P2
2021/04/03 00:00:15;;;;;;;19.00;7.72;;;;;;;6.23;65.15;100181.28;2248674;78;31176;-64
2021/04/03 00:03:21;;;;;;;19.60;8.83;;;;;;;6.15;65.28;100193.52;2225254;80;29312;-63
2021/04/03 00:06:23;;;;;;;14.50;7.17;;;;;;;6.02;65.38;100189.08;2216667;80;29698;-62
2021/04/03 00:09:25;;;;;;;17.77;7.53;;;;;;;5.93;65.56;100186.67;2250846;78;27761;-63
2021/04/03 00:12:28;;;;;;;16.17;7.45;;;;;;;5.89;65.63;100189.90;2201123;80;28892;-63
2021/04/03 00:15:30;;;;;;;17.87;7.47;;;;;;;5.81;65.82;100186.59;2258090;78;31143;-64
2021/04/03 00:18:32;;;;;;;20.43;7.03;;;;;;;5.81;65.92;100189.73;2216116;80;33187;-63
2021/04/03 00:21:34;;;;;;;17.40;7.50;;;;;;;5.82;66.20;100180.36;2232027;78;30200;-64
2021/04/03 00:24:37;;;;;;;16.10;7.45;;;;;;;5.87;66.30;100178.91;2216387;80;27675;-64
2021/04/03 00:27:40;;;;;;;14.87;7.78;;;;;;;5.87;66.23;100178.91;2258089;78;28871;-63
2021/04/03 00:30:42;;;;;;;17.70;7.70;;;;;;;5.87;66.25;100176.25;2207399;80;31154;-64
2021/04/03 00:33:45;;;;;;;16.30;8.45;;;;;;;5.85;66.29;100176.28;2214300;80;33116;-63
2021/04/03 00:36:47;;;;;;;20.23;7.42;;;;;;;5.88;66.51;100176.19;2216647;80;31190;-64
2021/04/03 00:39:49;;;;;;;19.60;8.18;;;;;;;5.93;66.60;100173.38;2219515;78;27732;-63
2021/04/03 00:42:55;;;;;;;20.70;8.55;;;;;;;5.94;66.61;100173.79;2222535;80;28821;-64
2021/04/03 00:45:59;;;;;;;13.40;7.65;;;;;;;5.93;66.71;100176.92;2235869;79;31195;-64
2021/04/03 00:49:01;;;;;;;12.85;7.67;;;;;;;5.91;66.74;100168.56;2250924;79;33110;-63
2021/04/03 00:52:08;;;;;;;16.27;7.30;;;;;;;5.88;66.81;100169.55;2214174;79;28852;-64
2021/04/03 00:55:11;;;;;;;17.95;7.08;;;;;;;5.89;66.97;100173.95;2184286;81;27756;-64
2021/04/03 00:58:15;;;;;;;14.75;6.78;;;;;;;5.90;66.98;100167.71;2222157;80;28808;-64
2021/04/03 01:01:17;;;;;;;13.90;7.70;;;;;;;5.96;67.15;100168.44;2215964;79;31177;-62
2021/04/03 01:04:20;;;;;;;14.43;8.08;;;;;;;5.98;67.20;100171.45;2181721;81;33076;-63
2021/04/03 01:07:22;;;;;;;17.92;8.23;;;;;;;6.03;67.32;100172.65;2153024;80;29179;-62
2021/04/03 01:10:32;;;;;;;14.68;8.08;;;;;;;6.01;67.14;100164.73;2197170;80;27573;-63
2021/04/03 01:13:48;;;;;;;20.37;8.35;;;;;;;6.03;67.29;100160.69;2202621;80;28882;-63
2021/04/03 01:17:10;;;;;;;17.05;8.00;;;;;;;6.03;67.35;100156.25;2181659;81;32156;-63
2021/04/03 01:20:35;;;;;;;18.45;8.05;;;;;;;6.03;67.48;100153.59;2191951;80;35448;-63
2021/04/03 01:23:51;;;;;;;13.93;8.98;;;;;;;6.01;67.49;100151.88;2182182;81;29358;-62
2021/04/03 01:27:11;;;;;;;23.07;8.75;;;;;;;5.97;67.66;100143.56;2181702;81;27765;-62
2021/04/03 01:30:18;;;;;;;18.50;8.35;;;;;;;5.95;67.66;100147.61;2176234;81;29704;-62
2021/04/03 01:33:22;;;;;;;15.75;7.92;;;;;;;5.91;67.93;100140.20;2181647;81;31187;-62
2021/04/03 01:36:26;;;;;;;13.20;7.53;;;;;;;5.90;67.95;100135.80;2186590;80;33076;-63
2021/04/03 01:39:31;;;;;;;20.43;8.03;;;;;;;5.91;68.09;100134.00;2154576;81;29162;-63
2021/04/03 01:42:35;;;;;;;15.15;8.53;;;;;;;5.94;68.08;100127.26;2166408;82;27643;-63
2021/04/03 01:45:40;;;;;;;12.90;7.63;;;;;;;5.98;68.18;100125.36;2145577;80;28922;-62
2021/04/03 01:48:44;;;;;;;20.85;9.53;;;;;;;6.00;68.16;100120.89;2199505;80;32501;-63
2021/04/03 01:51:48;;;;;;;17.62;9.70;;;;;;;5.87;68.15;100089.85;2181788;80;33186;-63
2021/04/03 01:54:57;;;;;;;21.90;10.95;;;;;;;5.98;68.18;100112.95;2172374;80;29274;-64
2021/04/03 01:58:00;;;;;;;23.27;10.50;;;;;;;5.98;68.24;100108.96;2181549;81;27686;-63
2021/04/03 02:01:04;;;;;;;20.60;9.83;;;;;;;5.97;68.29;100106.33;2203163;80;28799;-63
2021/04/03 02:04:07;;;;;;;19.02;9.78;;;;;;;5.94;68.36;100103.33;2216687;80;31130;-63
2021/04/03 02:07:13;;;;;;;20.50;11.35;;;;;;;5.88;68.32;100101.75;2258338;78;33173;-63
2021/04/03 02:10:20;;;;;;;20.95;10.63;;;;;;;5.86;68.41;100106.25;2258895;78;29158;-62
2021/04/03 02:13:23;;;;;;;18.10;9.65;;;;;;;5.82;68.45;100107.26;2257734;78;27590;-62
2021/04/03 02:16:26;;;;;;;17.30;9.60;;;;;;;5.81;68.62;100110.84;2256593;78;29270;-62
2021/04/03 02:19:28;;;;;;;18.73;8.58;;;;;;;5.84;68.66;100110.74;2216332;80;31108;-63
2021/04/03 02:22:31;;;;;;;19.92;8.43;;;;;;;5.88;68.66;100116.38;2256347;78;35445;-63
2021/04/03 02:25:34;;;;;;;20.65;10.75;;;;;;;5.92;68.80;100112.70;2219379;79;28983;-64
2021/04/03 02:28:37;;;;;;;21.62;9.50;;;;;;;5.99;68.86;100119.13;2244549;78;27643;-63
2021/04/03 02:31:40;;;;;;;18.02;10.18;;;;;;;6.03;68.89;100112.38;2216661;80;28822;-63
2021/04/03 02:34:42;;;;;;;17.50;10.48;;;;;;;6.08;68.82;100108.22;2256643;78;31133;-63
2021/04/03 02:37:46;;;;;;;19.62;10.38;;;;;;;6.09;68.67;100111.30;2258751;78;33120;-63
2021/04/03 02:40:48;;;;;;;22.40;10.53;;;;;;;6.08;68.54;100106.89;2255456;78;30115;-63
2021/04/03 02:44:05;;;;;;;20.82;10.23;;;;;;;6.04;68.57;100103.92;2250236;79;28146;-63
2021/04/03 02:47:24;;;;;;;21.27;10.98;;;;;;;5.98;68.54;100104.09;2183840;80;31156;-64
2021/04/03 02:50:36;;;;;;;17.25;10.82;;;;;;;5.96;68.60;100109.95;2180035;81;31113;-63
2021/04/03 02:53:38;;;;;;;23.62;11.08;;;;;;;5.91;68.80;100102.09;2208517;80;33207;-62
2021/04/03 02:56:44;;;;;;;22.20;11.15;;;;;;;5.87;68.83;100111.13;2252419;78;29263;-63
2021/04/03 02:59:53;;;;;;;;;;;;;;;5.86;68.86;100100.93;2271103;78;27751;-63
2021/04/03 03:02:55;;;;;;;22.50;10.58;;;;;;;5.86;69.02;100104.06;2234332;78;28864;-63
2021/04/03 03:05:59;;;;;;;23.27;11.83;;;;;;;5.83;69.04;100100.17;2262868;78;31142;-63
2021/04/03 03:09:02;;;;;;;20.75;10.82;;;;;;;5.85;69.20;100107.16;2258747;78;33045;-63
2021/04/03 03:12:07;;;;;;;22.25;11.28;;;;;;;5.85;69.17;100102.33;2249968;78;29242;-63
2021/04/03 03:15:12;;;;;;;23.40;11.12;;;;;;;5.86;69.26;100106.72;2184889;80;27602;-62
2021/04/03 03:18:15;;;;;;;19.07;9.68;;;;;;;5.84;69.24;100105.42;2256810;78;28887;-63
2021/04/03 03:21:17;;;;;;;21.02;10.28;;;;;;;5.85;69.38;100106.31;2216345;80;31928;-62
2021/04/03 03:24:20;;;;;;;17.87;8.65;;;;;;;5.84;69.44;100108.08;2238671;78;34252;-63
2021/04/03 03:27:22;;;;;;;18.35;9.18;;;;;;;5.83;69.47;100102.83;2189656;78;29168;-63
2021/04/03 03:30:27;;;;;;;24.47;11.38;;;;;;;5.81;69.50;100108.66;2148625;81;27693;-63
2021/04/03 03:33:29;;;;;;;17.45;8.98;;;;;;;5.77;69.52;100110.55;2218658;80;28815;-63
2021/04/03 03:36:35;;;;;;;17.48;8.48;;;;;;;5.75;69.61;100109.25;2164242;80;31256;-63
2021/04/03 03:39:39;;;;;;;20.12;8.65;;;;;;;5.75;69.53;100114.57;2216432;80;33113;-64
2021/04/03 03:42:42;;;;;;;19.45;7.90;;;;;;;5.78;69.62;100118.94;2239929;78;30066;-63
2021/04/03 03:45:44;;;;;;;21.07;9.15;;;;;;;5.81;69.57;100120.61;2236915;78;27663;-64
2021/04/03 03:48:47;;;;;;;21.57;8.53;;;;;;;5.82;69.58;100121.03;2205473;80;28836;-64
2021/04/03 03:51:49;;;;;;;20.45;10.40;;;;;;;5.82;69.63;100124.54;2256500;78;33471;-64
2021/04/03 03:54:51;;;;;;;18.50;8.68;;;;;;;5.83;69.70;100127.61;2228332;79;34267;-63
2021/04/03 03:57:54;;;;;;;21.52;9.03;;;;;;;5.83;69.62;100130.74;2258783;78;29080;-64
2021/04/03 04:00:56;;;;;;;16.77;9.20;;;;;;;5.81;69.72;100132.10;2216699;80;27685;-64
2021/04/03 04:03:58;;;;;;;17.70;8.05;;;;;;;5.81;69.79;100129.92;2258641;78;29340;-65
2021/04/03 04:10:15;;;;;;;19.07;8.30;;;;;;;5.83;69.85;100134.25;2300817;75;28802;-67
2021/04/03 04:13:17;;;;;;;17.25;8.95;;;;;;;5.78;69.91;100136.22;2235556;77;27739;-66
2021/04/03 04:16:19;;;;;;;22.30;8.48;;;;;;;5.76;69.96;100136.72;2264915;78;29753;-65
2021/04/03 04:19:21;;;;;;;17.90;8.15;;;;;;;5.73;69.97;100137.67;2264751;78;31180;-66
2021/04/03 04:22:23;;;;;;;23.32;8.68;;;;;;;5.75;69.99;100138.97;2301938;77;33122;-63
2021/04/03 04:25:28;;;;;;;16.00;7.83;;;;;;;5.77;69.92;100143.30;2306784;77;28501;-65
2021/04/03 04:28:30;;;;;;;21.77;9.10;;;;;;;5.78;69.94;100149.50;2306746;77;27706;-65
2021/04/03 04:31:32;;;;;;;16.25;9.75;;;;;;;5.78;69.89;100148.18;2306605;77;28817;-66
2021/04/03 04:34:35;;;;;;;27.95;10.50;;;;;;;5.81;70.00;100151.19;2306598;77;31337;-66
2021/04/03 04:37:38;;;;;;;23.05;11.12;;;;;;;5.84;69.95;100154.61;2306651;77;33167;-65
2021/04/03 04:40:40;;;;;;;21.70;10.20;;;;;;;5.87;70.05;100157.64;2306659;77;28853;-65
2021/04/03 04:43:42;;;;;;;26.50;12.50;;;;;;;5.86;69.80;100162.08;2306721;77;27718;-66
2021/04/03 04:46:44;;;;;;;23.35;10.53;;;;;;;5.83;69.67;100167.48;2306553;77;28797;-65
2021/04/03 04:49:47;;;;;;;23.25;8.88;;;;;;;5.76;69.53;100169.47;2306630;77;31592;-66
2021/04/03 04:52:49;;;;;;;18.98;9.43;;;;;;;5.71;69.36;100170.06;2306582;77;33505;-65
2021/04/03 04:55:51;;;;;;;15.25;9.10;;;;;;;5.66;69.29;100171.13;2306530;77;29278;-65
2021/04/03 04:58:54;;;;;;;20.25;11.97;;;;;;;5.61;69.32;100172.17;2306777;77;27634;-65
2021/04/03 05:01:56;;;;;;;21.10;11.57;;;;;;;5.58;69.32;100174.03;2306625;77;28888;-64
2021/04/03 05:04:58;;;;;;;21.27;8.80;;;;;;;5.51;69.28;100176.48;2306570;77;31225;-65
2021/04/03 05:08:01;;;;;;;18.87;9.03;;;;;;;5.48;69.36;100182.30;2303603;77;33065;-66
2021/04/03 05:11:03;;;;;;;15.63;8.03;;;;;;;5.45;69.41;100186.84;2289929;77;28918;-65
2021/04/03 05:14:05;;;;;;;12.05;7.35;;;;;;;5.47;69.49;100192.52;2289980;77;27633;-66
2021/04/03 05:17:08;;;;;;;17.92;8.95;;;;;;;5.54;69.46;100197.66;2289846;77;28814;-65
2021/04/03 05:20:12;;;;;;;18.40;8.75;;;;;;;5.56;69.41;100195.80;2289401;77;31128;-66
2021/04/03 05:23:19;;;;;;;16.50;8.80;;;;;;;5.60;69.40;100195.68;2289168;77;33113;-65
2021/04/03 05:26:22;;;;;;;27.02;10.45;;;;;;;5.63;69.25;100198.22;2289145;77;29791;-64
2021/04/03 05:29:24;;;;;;;24.63;10.60;;;;;;;5.71;69.15;100210.41;2289128;77;27589;-65
2021/04/03 05:32:26;;;;;;;17.15;9.35;;;;;;;5.79;68.90;100204.41;2289131;77;28816;-65
2021/04/03 05:35:28;;;;;;;23.73;10.08;;;;;;;5.87;68.95;100206.83;2289063;77;31230;-65
2021/04/03 05:38:31;;;;;;;19.92;10.78;;;;;;;5.95;68.75;100208.77;2289029;77;34058;-66
2021/04/03 05:41:33;;;;;;;20.68;8.88;;;;;;;6.00;68.61;100213.96;2289064;77;28862;-65
2021/04/03 05:44:37;;;;;;;26.10;11.05;;;;;;;6.00;68.42;100213.52;2289104;77;27695;-64
2021/04/03 05:47:39;;;;;;;20.68;10.23;;;;;;;6.00;68.08;100218.84;2289304;77;28813;-65
2021/04/03 05:50:42;;;;;;;17.70;9.28;;;;;;;6.02;68.16;100220.99;2289050;77;31332;-65
2021/04/03 05:53:45;;;;;;;18.37;9.33;;;;;;;6.10;68.00;100230.05;2288958;77;34107;-64
2021/04/03 05:56:47;;;;;;;20.60;9.48;;;;;;;6.13;67.83;100233.06;2289097;77;28898;-65
2021/04/03 05:59:50;;;;;;;19.62;9.15;;;;;;;6.15;67.89;100228.56;2289229;77;28183;-65
2021/04/03 06:02:52;;;;;;;16.95;8.15;;;;;;;6.15;67.70;100231.23;2289099;77;28892;-65
2021/04/03 06:05:55;;;;;;;19.52;8.28;;;;;;;6.10;67.31;100235.38;2288989;77;31031;-65
2021/04/03 06:08:57;;;;;;;14.18;8.00;;;;;;;6.01;67.08;100239.64;2278055;77;33095;-65
2021/04/03 06:11:59;;;;;;;18.90;8.38;;;;;;;6.01;67.08;100235.65;2259604;78;29078;-65
2021/04/03 06:15:02;;;;;;;17.77;8.05;;;;;;;6.18;67.51;100243.95;2259699;78;27707;-65
2021/04/03 06:18:12;;;;;;;23.52;9.85;;;;;;;6.42;66.91;100237.88;2259616;78;28795;-65
2021/04/03 06:21:15;;;;;;;19.35;8.55;;;;;;;6.72;66.75;100242.62;2259524;78;32085;-65
2021/04/03 06:24:34;;;;;;;19.12;10.30;;;;;;;6.90;66.09;100251.75;2259534;78;34038;-65
2021/04/03 06:27:36;;;;;;;22.07;9.30;;;;;;;6.99;65.45;100262.09;2259593;78;29103;-66
2021/04/03 06:30:39;;;;;;;23.25;9.68;;;;;;;6.97;65.74;100257.28;2259674;78;28269;-66
2021/04/03 06:33:42;;;;;;;19.65;9.38;;;;;;;6.92;65.35;100262.37;2259584;78;28807;-65
2021/04/03 06:36:47;;;;;;;24.70;9.33;;;;;;;6.88;65.43;100263.39;2259621;78;31199;-65
2021/04/03 06:39:57;;;;;;;19.90;8.15;;;;;;;6.95;65.59;100259.60;2259730;78;33829;-65
2021/04/03 06:43:18;;;;;;;16.73;7.80;;;;;;;7.35;65.73;100255.95;2342762;76;29936;-65
2021/04/03 06:46:24;;;;;;;19.10;9.85;;;;;;;7.78;65.26;100260.98;2306497;77;27600;-64
2021/04/03 06:49:26;;;;;;;16.32;8.25;;;;;;;8.29;65.13;100272.30;2306564;77;29017;-67
2021/04/03 06:52:29;;;;;;;22.75;13.13;;;;;;;8.72;64.31;100270.16;2306479;77;32141;-65
2021/04/03 06:55:32;;;;;;;19.00;8.78;;;;;;;9.11;63.58;100276.92;2306481;77;33146;-66
2021/04/03 06:58:36;;;;;;;15.48;8.23;;;;;;;9.51;63.33;100279.61;2306605;77;27801;-65
2021/04/03 07:01:54;;;;;;;20.90;8.80;;;;;;;10.00;62.56;100280.48;2306523;77;27725;-67
2021/04/03 07:05:00;;;;;;;22.70;11.00;;;;;;;10.30;61.86;100287.08;2306371;77;28883;-66
2021/04/03 07:08:12;;;;;;;22.25;9.25;;;;;;;10.60;61.36;100282.52;2305934;77;27702;-67
2021/04/03 07:11:39;;;;;;;19.10;9.58;;;;;;;10.67;60.58;100292.48;2275811;77;34336;-68
2021/04/03 07:14:50;;;;;;;19.12;10.78;;;;;;;10.69;60.62;100303.51;2214414;80;29136;-67
2021/04/03 07:17:57;;;;;;;14.93;8.50;;;;;;;11.03;60.16;100300.91;2214543;80;27926;-64
2021/04/03 07:21:00;;;;;;;20.57;8.38;;;;;;;11.28;59.03;100310.38;2214573;80;28798;-64
2021/04/03 07:24:03;;;;;;;13.35;8.28;;;;;;;11.48;58.64;100314.67;2214525;80;31140;-65
2021/04/03 07:27:06;;;;;;;16.90;7.90;;;;;;;11.57;58.75;100314.66;2214678;80;34008;-66
2021/04/03 07:30:10;;;;;;;16.82;8.75;;;;;;;11.58;56.82;100326.67;2214553;80;28854;-66
2021/04/03 07:33:21;;;;;;;18.77;8.95;;;;;;;11.33;56.62;100327.09;2214670;80;27557;-66
2021/04/03 07:36:39;;;;;;;15.28;7.17;;;;;;;11.29;57.29;100329.05;2214715;80;28962;-65
2021/04/03 07:39:44;;;;;;;13.53;8.40;;;;;;;11.52;56.40;100339.91;2214764;80;31243;-66
2021/04/03 07:42:45;;;;;;;18.27;7.33;;;;;;;11.78;56.57;100344.83;2214417;80;33089;-65
2021/04/03 07:45:47;;;;;;;13.83;6.53;;;;;;;11.58;55.49;100352.16;2214500;80;31255;-66
2021/04/03 07:48:54;;;;;;;15.32;6.65;;;;;;;11.56;54.38;100358.08;2214709;80;27335;-65
2021/04/03 07:51:57;;;;;;;14.53;6.05;;;;;;;11.67;53.82;100361.05;2214611;80;28777;-65
2021/04/03 07:55:29;;;;;;;13.25;6.42;;;;;;;12.04;54.40;100370.78;2213864;80;31140;-65
2021/04/03 07:58:38;;;;;;;16.67;8.45;;;;;;;12.06;54.69;100370.23;2213757;80;33553;-66
2021/04/03 08:01:51;;;;;;;11.20;6.90;;;;;;;11.83;54.48;100381.20;2251897;77;32289;-65
2021/04/03 08:04:56;;;;;;;14.63;6.72;;;;;;;11.55;54.48;100380.00;2217480;80;27666;-66
2021/04/03 08:07:58;;;;;;;11.57;6.58;;;;;;;11.50;54.25;100386.55;2217777;80;29631;-65
2021/04/03 08:11:16;;;;;;;14.73;6.90;;;;;;;11.45;53.68;100392.63;2217469;80;31206;-66
2021/04/03 08:14:22;;;;;;;11.35;5.67;;;;;;;11.38;54.25;100402.81;2217519;80;33157;-65
2021/04/03 08:17:25;;;;;;;26.57;15.23;;;;;;;11.49;53.30;100402.26;2187442;80;28610;-64
2021/04/03 08:20:27;;;;;;;18.55;7.50;;;;;;;11.28;53.09;100405.09;2186934;80;27730;-65
2021/04/03 08:23:41;;;;;;;16.07;8.40;;;;;;;11.11;53.20;100405.96;2217587;80;28888;-64
2021/04/03 08:26:44;;;;;;;12.93;6.17;;;;;;;11.25;53.69;100407.47;2217715;80;31700;-65
2021/04/03 08:29:49;;;;;;;16.17;6.87;;;;;;;11.43;53.75;100418.20;2217549;80;33089;-65
2021/04/03 08:33:10;;;;;;;12.23;6.30;;;;;;;11.57;52.46;100418.84;2185900;80;28789;-64
2021/04/03 08:36:15;;;;;;;18.65;7.22;;;;;;;11.65;52.29;100423.81;2217735;80;27686;-65
2021/04/03 08:39:21;;;;;;;13.53;7.22;;;;;;;11.70;52.49;100427.09;2217611;80;28814;-65
2021/04/03 08:42:23;;;;;;;11.10;6.08;;;;;;;11.63;52.59;100435.09;2217513;80;31125;-66
2021/04/03 08:45:25;;;;;;;15.43;7.10;;;;;;;11.56;51.70;100431.86;2217530;80;33125;-65
2021/04/03 08:48:33;;;;;;;12.70;7.10;;;;;;;11.45;51.03;100433.75;2217630;80;29781;-64
2021/04/03 08:51:36;;;;;;;12.07;7.03;;;;;;;11.40;51.45;100435.79;2217640;80;27672;-65
2021/04/03 08:54:41;;;;;;;9.98;5.53;;;;;;;11.43;51.78;100438.32;2217515;80;29885;-65
2021/04/03 08:57:44;;;;;;;13.98;6.80;;;;;;;11.50;51.75;100433.02;2217595;80;32379;-64
2021/04/03 09:00:47;;;;;;;15.80;7.90;;;;;;;11.77;51.83;100424.50;2221355;80;33115;-65
2021/04/03 09:03:55;;;;;;;10.60;6.22;;;;;;;12.16;52.04;100433.22;2171001;80;29051;-65
2021/04/03 09:06:55;;;;;;;9.85;6.08;;;;;;;12.49;50.77;100444.89;2224298;80;27657;-65
2021/04/03 09:10:07;;;;;;;11.18;5.90;;;;;;;12.62;50.70;100441.91;2224726;80;28745;-64
2021/04/03 09:13:13;;;;;;;12.55;6.45;;;;;;;12.77;50.38;100450.91;2224037;80;32931;-65
2021/04/03 09:16:16;;;;;;;10.58;6.40;;;;;;;12.86;50.10;100450.41;2223933;80;33123;-64
2021/04/03 09:19:30;;;;;;;9.60;5.75;;;;;;;12.88;49.02;100454.34;2223923;80;28866;-64
2021/04/03 09:22:41;;;;;;;16.15;6.70;;;;;;;12.77;48.37;100456.29;2224066;80;27669;-65
2021/04/03 09:25:44;;;;;;;12.23;6.78;;;;;;;12.65;49.12;100459.22;2223914;80;29773;-66
2021/04/03 09:28:46;;;;;;;10.55;6.80;;;;;;;12.48;48.44;100461.97;2224070;80;31137;-65
2021/04/03 09:31:49;;;;;;;10.72;6.65;;;;;;;12.38;49.17;100464.30;2223824;80;33109;-64
2021/04/03 09:34:56;;;;;;;9.65;5.53;;;;;;;12.34;48.93;100470.28;2223816;80;28843;-65
2021/04/03 09:38:03;;;;;;;17.73;10.05;;;;;;;12.24;48.12;100471.28;2222503;80;27700;-66
2021/04/03 09:41:27;;;;;;;15.72;8.70;;;;;;;12.10;48.14;100470.67;2223803;80;28885;-65
2021/04/03 09:44:31;;;;;;;16.20;7.65;;;;;;;11.93;48.13;100467.98;2223586;80;32677;-66
2021/04/03 09:47:33;;;;;;;12.35;6.60;;;;;;;11.70;48.32;100480.31;2223904;80;33116;-66
2021/04/03 09:50:36;;;;;;;9.85;5.87;;;;;;;11.59;48.43;100482.66;2224020;80;28957;-65
2021/04/03 09:53:51;;;;;;;11.45;5.78;;;;;;;11.55;48.24;100474.39;2224081;80;27619;-66
2021/04/03 09:57:08;;;;;;;11.33;7.67;;;;;;;11.52;48.35;100485.28;2221305;80;27600;-66
2021/04/03 10:00:15;;;;;;;12.53;5.70;;;;;;;11.54;47.79;100474.85;2197091;78;32099;-67
2021/04/03 10:03:23;;;;;;;13.95;5.28;;;;;;;11.54;47.60;100474.00;2191271;80;33556;-67
2021/04/03 10:06:26;;;;;;;10.95;5.40;;;;;;;11.46;48.36;100448.02;2220316;80;28780;-66
2021/04/03 10:09:29;;;;;;;16.05;6.90;;;;;;;11.46;48.36;100448.02;2220469;80;27718;-66
2021/04/03 10:12:32;;;;;;;14.80;8.28;;;;;;;11.63;47.39;100475.34;2192011;80;28822;-66
2021/04/03 10:15:36;;;;;;;11.18;5.08;;;;;;;11.61;47.83;100473.20;2220490;80;32225;-66
2021/04/03 10:18:41;;;;;;;5.42;4.03;;;;;;;11.64;47.24;100468.55;2220464;80;34031;-66
2021/04/03 10:21:48;;;;;;;10.72;5.67;;;;;;;11.59;46.63;100470.59;2191991;80;28861;-71
2021/04/03 10:24:50;;;;;;;8.58;5.30;;;;;;;11.49;46.96;100468.88;2220633;80;28218;-66
2021/04/03 10:27:54;;;;;;;9.33;5.70;;;;;;;11.33;47.38;100459.87;2220466;80;31288;-65
2021/04/03 10:30:56;;;;;;;10.35;4.90;;;;;;;11.21;46.58;100455.48;2220629;80;31134;-65
2021/04/03 10:33:58;;;;;;;8.90;5.65;;;;;;;11.00;47.16;100453.41;2220549;80;33052;-66
2021/04/03 10:37:01;;;;;;;10.18;5.40;;;;;;;10.85;47.19;100463.53;2220471;80;28900;-66
2021/04/03 10:40:06;;;;;;;8.45;4.53;;;;;;;10.73;47.45;100464.98;2220527;80;27670;-65
2021/04/03 10:43:11;;;;;;;7.58;4.33;;;;;;;10.61;46.68;100465.09;2220649;80;29692;-68
2021/04/03 10:46:13;;;;;;;6.17;3.87;;;;;;;10.49;46.61;100450.00;2220629;80;31137;-65
2021/04/03 10:49:18;;;;;;;7.45;4.92;;;;;;;10.58;47.07;100455.40;2220470;80;33070;-66
2021/04/03 10:52:20;;;;;;;6.30;3.75;;;;;;;10.70;47.17;100453.95;2220513;80;28710;-66
2021/04/03 10:55:23;;;;;;;10.58;5.20;;;;;;;10.79;46.19;100464.22;2220580;80;27705;-66
2021/04/03 10:58:25;;;;;;;5.53;3.45;;;;;;;10.86;46.61;100444.69;2220610;80;28886;-66
2021/04/03 11:01:27;;;;;;;6.03;4.15;;;;;;;10.98;45.96;100445.05;2218401;80;31315;-65
2021/04/03 11:04:30;;;;;;;5.05;3.33;;;;;;;11.04;46.14;100442.94;2216619;80;33098;-66
2021/04/03 11:07:34;;;;;;;8.05;4.33;;;;;;;11.05;45.95;100435.75;2216731;80;28866;-67
2021/04/03 11:10:45;;;;;;;7.95;4.12;;;;;;;11.15;45.73;100438.39;2157817;80;27677;-67
2021/04/03 11:13:52;;;;;;;4.37;2.83;;;;;;;11.20;45.33;100443.02;2216729;80;28875;-67
2021/04/03 11:17:01;;;;;;;6.42;2.85;;;;;;;11.12;44.70;100444.34;2216588;80;31180;-67
2021/04/03 11:20:07;;;;;;;5.80;3.22;;;;;;;11.05;45.47;100446.47;2216546;80;33951;-65
2021/04/03 11:23:24;;;;;;;;;;;;;;;;;;;;;
2021/04/03 11:26:34;;;;;;;6.35;3.70;;;;;;;10.79;45.17;100445.95;2216766;80;28183;-66
2021/04/03 11:29:37;;;;;;;7.83;3.83;;;;;;;10.67;45.37;100456.77;2216586;80;28818;-66
2021/04/03 11:32:47;;;;;;;7.10;4.70;;;;;;;10.64;45.75;100448.42;2216734;80;31719;-66
2021/04/03 11:35:50;;;;;;;9.90;5.12;;;;;;;10.75;46.12;100443.00;2216550;80;33035;-67
2021/04/03 11:39:01;;;;;;;8.10;3.70;;;;;;;10.86;46.13;100440.66;2216530;80;30253;-68
2021/04/03 11:42:25;;;;;;;8.95;4.17;;;;;;;10.89;45.66;100441.86;2187488;80;27707;-67
2021/04/03 11:45:27;;;;;;;21.25;7.95;;;;;;;10.78;44.46;100444.20;2216688;80;28910;-67
2021/04/03 11:48:29;;;;;;;6.90;2.75;;;;;;;10.52;44.77;100453.00;2216653;80;31190;-64
2021/04/03 11:51:34;;;;;;;5.00;2.20;;;;;;;10.37;46.06;100463.94;2216576;80;33529;-67
2021/04/03 11:54:36;;;;;;;20.00;7.73;;;;;;;10.26;46.71;100465.77;2216936;80;28834;-66
2021/04/03 11:57:39;;;;;;;7.03;4.00;;;;;;;10.22;47.02;100461.48;2216736;80;27745;-67
2021/04/03 12:00:42;;;;;;;4.70;2.90;;;;;;;10.25;47.14;100460.50;2217660;80;29701;-67
2021/04/03 12:03:44;;;;;;;4.72;2.83;;;;;;;10.26;47.14;100459.56;2223879;80;31828;-66
2021/04/03 12:06:46;;;;;;;6.00;3.35;;;;;;;10.27;47.66;100461.27;2223867;80;32970;-66
2021/04/03 12:09:48;;;;;;;7.37;4.05;;;;;;;10.41;47.99;100459.33;2223911;80;28108;-66
2021/04/03 12:12:51;;;;;;;3.60;2.75;;;;;;;10.58;47.76;100463.44;2223912;80;27696;-66
2021/04/03 12:15:54;;;;;;;6.80;2.70;;;;;;;10.70;47.03;100466.46;2223895;80;29341;-68
2021/04/03 12:18:57;;;;;;;6.17;3.08;;;;;;;10.69;47.31;100468.29;2223794;80;32102;-66
2021/04/03 12:21:59;;;;;;;3.98;2.72;;;;;;;10.64;47.63;100497.98;2223783;80;34089;-65
2021/04/03 12:25:06;;;;;;;6.35;2.37;;;;;;;10.20;48.91;100518.24;2223841;80;28858;-65
2021/04/03 12:28:09;;;;;;;3.08;1.87;;;;;;;9.72;49.75;100529.22;2223957;80;27674;-65
2021/04/03 12:31:13;;;;;;;3.25;2.25;;;;;;;9.19;50.60;100542.54;2223875;80;30214;-66
2021/04/03 12:34:15;;;;;;;5.47;2.10;;;;;;;8.73;51.51;100561.22;2223857;80;32536;-64
2021/04/03 12:37:18;;;;;;;5.45;2.30;;;;;;;8.31;52.12;100559.20;2223807;80;33113;-66
2021/04/03 12:40:20;;;;;;;3.85;2.30;;;;;;;8.01;52.82;100568.22;2223898;80;28864;-66
2021/04/03 12:43:23;;;;;;;2.40;1.80;;;;;;;7.74;54.56;100570.92;2223916;80;27677;-65
2021/04/03 12:46:26;;;;;;;3.58;1.90;;;;;;;7.44;54.31;100569.68;2223928;80;28823;-64
2021/04/03 12:49:28;;;;;;;4.22;1.90;;;;;;;7.25;55.17;100576.03;2224035;80;31973;-64
2021/04/03 12:52:30;;;;;;;6.55;3.30;;;;;;;7.15;55.66;100573.27;2224050;80;33117;-65
2021/04/03 12:55:32;;;;;;;7.25;3.12;;;;;;;7.06;56.07;100571.75;2223943;80;28866;-65
2021/04/03 12:58:36;;;;;;;5.28;3.80;;;;;;;6.95;56.81;100571.22;2224072;80;27612;-64
2021/04/03 13:01:39;;;;;;;2.95;2.62;;;;;;;6.84;57.23;100568.39;2221303;80;28817;-64
2021/04/03 13:04:41;;;;;;;3.87;2.37;;;;;;;6.74;57.44;100562.05;2216770;80;31561;-65
2021/04/03 13:07:43;;;;;;;4.28;2.50;;;;;;;6.66;57.42;100561.84;2216792;80;32882;-65
2021/04/03 13:10:46;;;;;;;6.62;2.92;;;;;;;6.64;57.66;100553.46;2216804;80;29754;-66
2021/04/03 13:13:48;;;;;;;3.75;2.12;;;;;;;6.68;58.09;100540.04;2216766;80;27709;-65
2021/04/03 13:16:50;;;;;;;3.87;2.40;;;;;;;6.74;58.28;100542.09;2216653;80;28832;-65
2021/04/03 13:19:52;;;;;;;11.75;6.12;;;;;;;6.77;57.92;100525.58;2216679;80;32117;-66
2021/04/03 13:22:54;;;;;;;6.30;3.75;;;;;;;6.87;58.31;100514.63;2216653;80;33072;-66
2021/04/03 13:25:57;;;;;;;27.35;13.30;;;;;;;7.01;58.60;100515.55;2216703;80;29161;-65
2021/04/03 13:29:00;;;;;;;56.77;25.20;;;;;;;7.19;58.61;100514.97;2216815;80;27742;-66
2021/04/03 13:32:03;;;;;;;9.95;4.70;;;;;;;7.40;58.75;100506.72;2216837;80;28890;-66
2021/04/03 13:35:10;;;;;;;53.08;25.85;;;;;;;7.65;58.80;100503.21;2216728;80;31302;-66
2021/04/03 13:38:15;;;;;;;14.83;7.35;;;;;;;7.85;58.21;100494.55;2216817;80;33113;-67
2021/04/03 13:41:19;;;;;;;6.53;3.77;;;;;;;8.08;58.21;100493.31;2136096;83;27760;-66
2021/04/03 13:44:23;;;;;;;11.20;5.70;;;;;;;8.28;58.24;100494.76;2136364;83;27754;-66
2021/04/03 13:47:27;;;;;;;9.28;4.75;;;;;;;8.54;58.56;100490.30;2136507;82;30247;-66
2021/04/03 13:50:30;;;;;;;4.22;2.55;;;;;;;8.76;58.46;100489.47;2136212;83;31717;-67
2021/04/03 13:53:32;;;;;;;13.78;7.62;;;;;;;8.93;58.15;100496.36;2111993;83;34647;-66
2021/04/03 13:56:34;;;;;;;7.67;4.03;;;;;;;9.15;58.04;100497.29;2136249;83;29122;-66
2021/04/03 13:59:36;;;;;;;5.15;2.83;;;;;;;9.32;57.97;100496.14;2136328;83;27905;-66
2021/04/03 14:02:39;;;;;;;8.20;4.22;;;;;;;9.38;57.10;100495.86;2132630;81;29312;-66
2021/04/03 14:05:43;;;;;;;8.88;3.02;;;;;;;9.45;57.23;100493.80;2130153;83;31642;-66
2021/04/03 14:08:45;;;;;;;5.70;2.90;;;;;;;9.52;56.67;100492.62;2130127;83;32942;-66
2021/04/03 14:11:48;;;;;;;5.08;3.20;;;;;;;9.59;56.79;100497.23;2130245;83;30216;-67
2021/04/03 14:14:50;;;;;;;4.67;2.40;;;;;;;9.62;56.14;100498.45;2130271;83;27708;-66
2021/04/03 14:17:53;;;;;;;4.22;2.27;;;;;;;9.59;55.72;100499.91;2130250;83;28895;-66
2021/04/03 14:20:56;;;;;;;4.45;2.75;;;;;;;9.52;53.78;100503.77;2130133;83;31152;-66